Main page
METAR-TAF:

METAR-TAF

Airports :

Simón Bolívar International Airport

Caracas, Venezuela

latitude: 10-36N, longitude: 066-59W, elevation: 43 m

Current weather observation

The report was made 34 minutes ago, at 23:02 UTC
Calm wind
Temperature 27°C
Humidity 74%
Pressure 1009 hPa
Visibility 10 km or more
Few clouds at a height of 1600 ft
Broken clouds at a height of 7000 ft

METAR: SVMI 052302Z 00000KT 9999 FEW016 BKN070 27/22 Q1009 NOSIG

Time: 19:36 (23:36 UTC)

Forecast

The report was made 7 hours and 36 minutes ago, at 16:00 UTC
Forecast valid from 05 at 18 UTC to 06 at 18 UTC
Wind 3 kt from the East
Visibility 10 km or more
Few clouds at a height of 1600 ft
Scattered clouds at a height of 7000 ft
Becoming
from 05 at 18 UTC to 05 at 22 UTC
Wind 4 kt from the East
Visibility 10 km or more
Scattered clouds at a height of 7000 ft

TAF: SVMI 051600Z 0518/0618 09003KT 9999 FEW016 SCT070 TX30/19Z TN23/09Z BECMG 0518/0522 09004KT 9999 SCT070

Weather observations and forecasts of more than 4000 airports (METAR and TAF reports).

The available stations are represented by yellow and red dots on the map.

Hover mouse over dot to see the name of the station.

Then click to see weather observations and forecasts.

To change the map : click on the green buttons with a black cross to zoom in, on the green button with a dash to zoom out, or on the green arrows for adjacent maps.


METAR-TAF: